createdAt,value
2023-05-14T00:05:34.957Z,100969.09
2023-05-14T00:08:07.734Z,100966.47
2023-05-14T00:10:36.242Z,100963.91
2023-05-14T00:15:46.480Z,100964.81
2023-05-14T00:21:06.289Z,100958.75
2023-05-14T00:23:38.423Z,100956.97
2023-05-14T00:45:26.365Z,100928.41
2023-05-14T00:47:57.182Z,100919.72
2023-05-14T00:59:25.991Z,100908.63
2023-05-14T01:38:53.343Z,100872.31
2023-05-14T01:47:43.232Z,100861.16
2023-05-14T02:33:54.400Z,100841.09
2023-05-14T02:36:27.736Z,100834.16
2023-05-14T02:38:56.505Z,100835.84
2023-05-14T02:41:25.023Z,100838.44
2023-05-14T02:43:54.814Z,100828.84
2023-05-14T02:46:23.915Z,100827.13
2023-05-14T02:48:53.776Z,100822.75
2023-05-14T02:51:23.823Z,100828.78
2023-05-14T02:53:55.103Z,100825.34
2023-05-14T02:56:23.976Z,100818.31
2023-05-14T02:58:54.514Z,100818.25
2023-05-14T03:01:23.936Z,100810.38
2023-05-14T03:03:54.758Z,100816.28
2023-05-14T03:06:23.383Z,100813.69
2023-05-14T03:08:55.304Z,100808.50
2023-05-14T03:11:23.963Z,100812.69
2023-05-14T03:13:54.215Z,100810.09
2023-05-14T03:19:14.146Z,100807.63
2023-05-14T03:21:43.564Z,100805.03
2023-05-14T03:24:27.161Z,100809.47
2023-05-14T03:29:55.452Z,100811.34
2023-05-14T03:32:24.281Z,100817.38
2023-05-14T03:34:53.858Z,100814.91
2023-05-14T03:37:23.546Z,100823.47
2023-05-14T03:39:55.426Z,100822.56
2023-05-14T03:42:24.087Z,100820.00
2023-05-14T03:48:01.997Z,100814.81
2023-05-14T03:50:32.655Z,100821.69
2023-05-14T03:53:02.750Z,100819.94
2023-05-14T03:55:34.219Z,100812.16
2023-05-14T04:02:13.389Z,100815.53
2023-05-14T04:05:52.564Z,100811.22
2023-05-14T04:12:52.594Z,100807.63
2023-05-14T04:25:24.352Z,100810.09
2023-05-14T04:28:34.250Z,100807.50
2023-05-14T04:31:05.714Z,100815.28
2023-05-14T04:33:34.260Z,100807.53
2023-05-14T04:36:05.735Z,100812.75
2023-05-14T04:38:34.157Z,100820.53
2023-05-14T04:41:05.542Z,100829.22
2023-05-14T04:43:33.862Z,100826.72
2023-05-14T08:10:08.006Z,100750.19
2023-05-14T08:12:35.668Z,100751.00
2023-05-14T08:15:03.625Z,100738.91
2023-05-14T08:17:31.650Z,100744.09
2023-05-14T08:19:59.797Z,100745.06
2023-05-14T08:22:27.804Z,100739.13
2023-05-14T08:24:55.656Z,100737.53
2023-05-14T08:27:23.288Z,100731.38
2023-05-14T08:29:51.707Z,100731.34
2023-05-14T08:32:23.194Z,100727.09
2023-05-14T08:34:52.678Z,100734.06
2023-05-14T08:37:20.331Z,100733.19
2023-05-14T08:39:48.222Z,100731.59
2023-05-14T08:42:15.755Z,100728.97
2023-05-14T08:44:52.619Z,100729.88
2023-05-14T08:47:21.420Z,100729.72
2023-05-14T09:00:31.688Z,100722.78
2023-05-14T09:03:07.853Z,100736.72
2023-05-14T09:06:06.994Z,100728.09
2023-05-14T09:11:25.637Z,100728.06
2023-05-14T09:13:58.621Z,100735.06
2023-05-14T09:16:27.851Z,100736.03
2023-05-14T09:18:55.005Z,100726.44
2023-05-14T09:21:23.460Z,100723.88
2023-05-14T09:23:55.047Z,100714.44
2023-05-14T09:26:26.113Z,100723.22
2023-05-14T09:33:18.375Z,100707.78
2023-05-14T09:47:33.239Z,100706.84
2023-05-14T09:50:01.569Z,100702.53
2023-05-14T09:52:29.054Z,100697.34
2023-05-14T09:55:00.547Z,100706.13
2023-05-14T09:57:27.709Z,100696.63
2023-05-14T09:59:55.203Z,100694.03
2023-05-14T10:02:26.193Z,100698.41
2023-05-14T10:04:59.738Z,100690.69
2023-05-14T10:07:49.674Z,100693.28
2023-05-14T10:10:19.681Z,100688.22
2023-05-14T10:12:59.285Z,100689.97
2023-05-14T10:15:30.348Z,100692.63
2023-05-14T10:17:59.827Z,100683.97
2023-05-14T10:20:27.814Z,100681.44
2023-05-14T10:22:55.050Z,100690.97
2023-05-14T10:25:22.519Z,100689.28
2023-05-14T10:27:50.969Z,100690.13
2023-05-14T10:30:18.660Z,100693.59
2023-05-14T10:32:47.098Z,100692.72
2023-05-14T10:35:21.002Z,100685.75
2023-05-14T10:37:48.163Z,100697.94
2023-05-14T10:40:19.328Z,100683.19
2023-05-14T10:42:47.396Z,100686.66
2023-05-14T10:45:15.313Z,100678.84
2023-05-14T10:47:49.371Z,100677.13
2023-05-14T10:50:17.731Z,100671.91
2023-05-14T10:52:44.995Z,100668.44
2023-05-14T10:55:21.515Z,100665.84
2023-05-14T10:57:49.047Z,100663.25
2023-05-14T11:00:18.865Z,100664.97
2023-05-14T11:55:24.801Z,100630.53
2023-05-14T11:58:07.886Z,100623.66
2023-05-14T12:05:36.074Z,100611.78
2023-05-14T12:19:15.358Z,100603.03
2023-05-14T12:25:06.924Z,100585.31
2023-05-14T12:30:39.818Z,100595.56
2023-05-14T12:36:00.539Z,100583.38
2023-05-14T12:38:37.142Z,100577.44
2023-05-14T12:44:33.673Z,100589.63
2023-05-14T12:57:39.911Z,100583.63
2023-05-14T13:40:56.659Z,100558.91
2023-05-14T13:43:26.118Z,100557.16
2023-05-14T13:45:54.101Z,100554.56
2023-05-14T13:48:22.515Z,100558.84
2023-05-14T13:53:58.704Z,100555.31
2023-05-14T13:56:26.204Z,100553.69
2023-05-14T13:59:14.026Z,100552.78
2023-05-14T14:01:48.112Z,100542.31
2023-05-14T14:04:16.506Z,100542.25
2023-05-14T14:06:44.136Z,100539.63
2023-05-14T14:09:18.575Z,100534.34
2023-05-14T14:11:46.619Z,100530.03
2023-05-14T14:14:14.180Z,100541.38
2023-05-14T14:16:42.131Z,100536.19
2023-05-14T14:19:18.793Z,100528.41
2023-05-14T14:21:46.315Z,100530.19
2023-05-14T14:24:14.176Z,100526.75
2023-05-14T14:26:42.025Z,100530.25
2023-05-14T14:29:10.605Z,100531.09
2023-05-14T14:31:38.583Z,100530.25
2023-05-14T14:34:06.213Z,100532.09
2023-05-14T14:36:34.071Z,100535.59
2023-05-14T14:39:31.953Z,100546.00
2023-05-14T14:41:59.851Z,100536.53
2023-05-14T14:44:27.708Z,100531.28
2023-05-14T14:46:55.845Z,100531.34
2023-05-14T14:49:23.777Z,100536.56
2023-05-14T17:27:43.263Z,100526.59
2023-05-14T17:35:43.933Z,100533.41
2023-05-14T19:39:12.489Z,100563.47
2023-05-14T19:45:04.383Z,100557.44
2023-05-14T19:57:11.998Z,100556.53
2023-05-14T19:59:42.609Z,100560.00
2023-05-14T20:02:31.191Z,100556.53
2023-05-14T20:05:02.661Z,100556.56
2023-05-14T20:07:31.187Z,100555.66
2023-05-14T20:10:02.578Z,100559.09
2023-05-14T20:12:30.903Z,100559.97
2023-05-14T20:15:22.520Z,100560.75
2023-05-14T20:17:52.756Z,100564.97
2023-05-14T20:20:21.338Z,100570.91
2023-05-14T20:32:31.535Z,100574.38
2023-05-14T20:35:02.351Z,100570.00
2023-05-14T20:37:42.764Z,100575.22
2023-05-14T21:05:14.172Z,100561.25
